Time;durP1;ratioP1;P1;durP2;ratioP2;P2;SDS_P1;SDS_P2;PMS_P1;PMS_P2;Temp;Humidity;BMP_temperature;BMP_pressure;BME280_temperature;BME280_humidity;BME280_pressure;Samples;Min_cycle;Max_cycle;Signal;HPM_P1;HPM_P2
2022/05/11 00:00:48;;;;;;;7.30;1.77;;;20.10;54.80;;;;;;4498025;31;20135;-65
2022/05/11 00:03:16;;;;;;;6.18;1.73;;;20.10;54.80;;;;;;4498969;31;20715;-65
2022/05/11 00:05:42;;;;;;;8.35;1.90;;;20.00;54.80;;;;;;4498540;31;20144;-65
2022/05/11 00:08:08;;;;;;;5.55;1.83;;;20.10;54.80;;;;;;4498692;31;20139;-64
2022/05/11 00:10:35;;;;;;;4.00;1.55;;;20.10;54.80;;;;;;4499050;31;20144;-64
2022/05/11 00:13:01;;;;;;;4.80;1.70;;;20.10;54.80;;;;;;4498086;31;20613;-65
2022/05/11 00:15:28;;;;;;;6.28;1.85;;;20.00;54.70;;;;;;4500011;31;20120;-65
2022/05/11 00:17:53;;;;;;;5.20;1.85;;;20.00;54.70;;;;;;4498185;31;20644;-65
2022/05/11 00:20:20;;;;;;;6.68;1.90;;;20.00;54.70;;;;;;4485417;31;20141;-65
2022/05/11 00:22:46;;;;;;;4.15;1.50;;;20.00;54.70;;;;;;4498405;31;20148;-65
2022/05/11 00:25:15;;;;;;;4.45;1.67;;;20.00;54.70;;;;;;4485230;31;20184;-65
2022/05/11 00:27:41;;;;;;;4.35;1.60;;;20.00;54.60;;;;;;4498601;31;20278;-65
2022/05/11 00:30:07;;;;;;;6.15;1.60;;;20.00;54.60;;;;;;4484494;31;20121;-65
2022/05/11 00:32:33;;;;;;;3.75;1.40;;;20.00;54.60;;;;;;4498874;31;20168;-65
2022/05/11 00:34:59;;;;;;;4.68;1.52;;;20.00;54.60;;;;;;4497707;31;20271;-65
2022/05/11 00:37:26;;;;;;;3.90;1.55;;;20.00;54.60;;;;;;4485515;31;20132;-65
2022/05/11 00:39:52;;;;;;;5.70;1.70;;;20.00;54.60;;;;;;4499151;31;20136;-65
2022/05/11 00:42:18;;;;;;;4.38;2.00;;;20.00;54.60;;;;;;4497626;31;20119;-64
2022/05/11 00:44:44;;;;;;;4.05;1.40;;;20.00;54.60;;;;;;4485121;31;20129;-65
2022/05/11 00:47:14;;;;;;;4.35;1.73;;;20.00;54.60;;;;;;4484540;31;20133;-65
2022/05/11 00:49:48;;;;;;;2.88;1.60;;;20.00;54.60;;;;;;4498620;31;20125;-65
2022/05/11 00:52:45;;;;;;;3.65;1.92;;;20.00;54.50;;;;;;4498742;31;20159;-64
2022/05/11 00:55:19;;;;;;;5.78;1.40;;;20.00;54.40;;;;;;4491406;31;20132;-64
2022/05/11 00:57:54;;;;;;;3.85;1.73;;;20.00;54.50;;;;;;4498297;31;20233;-64
2022/05/11 01:00:22;;;;;;;3.28;1.20;;;20.00;54.50;;;;;;4498217;31;20391;-65
2022/05/11 01:02:53;;;;;;;6.10;1.80;;;20.00;54.50;;;;;;4498153;31;20128;-65
2022/05/11 01:05:22;;;;;;;4.18;1.63;;;20.00;54.50;;;;;;4497672;31;20684;-64
2022/05/11 01:07:51;;;;;;;6.38;2.05;;;20.00;54.50;;;;;;4498989;31;20143;-65
2022/05/11 01:10:17;;;;;;;4.22;1.52;;;20.00;54.50;;;;;;4485187;31;20136;-65
2022/05/11 01:12:46;;;;;;;2.85;1.10;;;19.90;54.40;;;;;;4497295;31;20144;-65
2022/05/11 01:15:16;;;;;;;4.68;1.50;;;19.90;54.40;;;;;;4498154;31;20198;-65
2022/05/11 01:17:42;;;;;;;3.60;1.48;;;19.90;54.40;;;;;;4497232;31;20117;-65
2022/05/11 01:20:13;;;;;;;3.72;1.58;;;19.90;54.40;;;;;;4497942;31;20129;-65
2022/05/11 01:23:04;;;;;;;3.78;1.40;;;19.90;54.40;;;;;;4498418;31;20125;-65
2022/05/11 01:25:30;;;;;;;2.25;1.20;;;19.90;54.30;;;;;;4497179;31;20143;-65
2022/05/11 01:28:04;;;;;;;3.20;1.30;;;19.90;54.40;;;;;;4485016;31;20124;-64
2022/05/11 01:30:31;;;;;;;6.25;1.42;;;19.90;54.40;;;;;;4496621;31;20205;-65
2022/05/11 01:32:57;;;;;;;3.25;1.30;;;19.90;54.40;;;;;;4484607;31;20143;-65
2022/05/11 01:35:49;;;;;;;6.30;1.70;;;19.90;54.40;;;;;;4496815;31;20221;-65
2022/05/11 01:38:34;;;;;;;4.15;1.30;;;19.90;54.30;;;;;;4497162;31;20148;-65
2022/05/11 01:41:00;;;;;;;3.08;1.35;;;19.90;54.40;;;;;;4497976;31;20144;-65
2022/05/11 01:43:29;;;;;;;4.40;1.40;;;19.90;54.40;;;;;;4497811;31;20136;-65
2022/05/11 01:45:56;;;;;;;5.28;1.52;;;19.90;54.40;;;;;;4497446;31;20141;-65
2022/05/11 01:48:23;;;;;;;2.67;1.35;;;19.90;54.30;;;;;;4496548;31;20190;-65
2022/05/11 01:50:49;;;;;;;3.83;1.40;;;19.90;54.30;;;;;;4497196;31;20131;-65
2022/05/11 01:53:15;;;;;;;3.13;1.58;;;19.90;54.30;;;;;;4497421;31;20121;-65
2022/05/11 01:55:42;;;;;;;4.88;1.73;;;19.90;54.40;;;;;;4483135;31;20557;-65
2022/05/11 01:58:11;;;;;;;3.45;1.30;;;19.90;54.30;;;;;;4498349;31;20229;-64
2022/05/11 02:00:38;;;;;;;2.45;1.05;;;19.90;54.40;;;;;;4497318;31;20147;-65
2022/05/11 02:03:04;;;;;;;2.45;1.27;;;19.90;54.30;;;;;;4496986;31;20135;-65
2022/05/11 02:08:16;;;;;;;2.28;1.10;;;19.90;54.30;;;;;;4497813;31;20132;-65
2022/05/11 02:10:42;;;;;;;2.58;1.20;;;19.80;54.30;;;;;;4484092;31;20128;-65
2022/05/11 02:13:08;;;;;;;3.40;1.30;;;19.80;54.30;;;;;;4496114;31;20202;-65
2022/05/11 02:15:36;;;;;;;2.55;1.20;;;19.80;54.30;;;;;;4497040;31;20140;-65
2022/05/11 02:18:03;;;;;;;4.40;1.30;;;19.80;54.20;;;;;;4496494;31;20121;-65
2022/05/11 02:20:29;;;;;;;5.63;1.23;;;19.80;54.30;;;;;;4496613;31;20128;-65
2022/05/11 02:22:56;;;;;;;2.78;1.40;;;19.80;54.30;;;;;;4496642;31;20136;-65
2022/05/11 02:25:22;;;;;;;4.45;1.00;;;19.80;54.30;;;;;;4497313;31;20249;-65
2022/05/11 02:27:50;;;;;;;2.60;1.10;;;19.80;54.30;;;;;;4497234;31;20132;-65
2022/05/11 02:30:28;;;;;;;6.38;1.50;;;19.80;54.30;;;;;;4495683;31;20129;-65
2022/05/11 02:32:55;;;;;;;2.53;1.30;;;19.80;54.30;;;;;;4496879;31;20407;-65
2022/05/11 02:35:22;;;;;;;4.57;1.17;;;19.80;54.30;;;;;;4482951;31;20120;-65
2022/05/11 02:37:56;;;;;;;2.15;1.17;;;19.80;54.30;;;;;;4483634;31;20139;-65
2022/05/11 02:40:28;;;;;;;;;;;19.80;54.20;;;;;;4497543;31;20164;-65
2022/05/11 02:42:54;;;;;;;3.20;1.20;;;19.80;54.20;;;;;;4496043;31;20462;-65
2022/05/11 02:45:22;;;;;;;3.00;1.48;;;19.80;54.30;;;;;;4483758;31;20747;-65
2022/05/11 02:47:50;;;;;;;2.80;1.48;;;19.80;54.30;;;;;;4497035;31;20163;-65
2022/05/11 02:50:25;;;;;;;1.77;1.13;;;19.80;54.30;;;;;;4496496;31;20125;-65
2022/05/11 02:52:51;;;;;;;3.15;1.50;;;19.80;54.30;;;;;;4496283;31;20117;-65
2022/05/11 02:55:17;;;;;;;2.72;1.02;;;19.80;54.20;;;;;;4482845;31;20206;-65
2022/05/11 02:57:43;;;;;;;1.75;1.00;;;19.80;54.30;;;;;;4496542;31;20164;-64
2022/05/11 03:00:12;;;;;;;1.98;1.08;;;19.80;54.30;;;;;;4495635;31;20172;-65
2022/05/11 03:02:38;;;;;;;3.83;1.27;;;19.80;54.30;;;;;;4496688;31;20125;-65
2022/05/11 03:05:05;;;;;;;4.63;1.20;;;19.80;54.30;;;;;;4482779;31;20210;-65
2022/05/11 03:07:32;;;;;;;2.10;1.10;;;19.80;54.30;;;;;;4495998;32;20683;-65
2022/05/11 03:09:58;;;;;;;2.85;1.27;;;19.80;54.30;;;;;;4483044;32;20121;-65
2022/05/11 03:12:24;;;;;;;1.98;1.05;;;19.80;54.30;;;;;;4483058;32;20140;-65
2022/05/11 03:14:54;;;;;;;2.30;1.05;;;19.80;54.30;;;;;;4496624;32;20139;-65
2022/05/11 03:17:21;;;;;;;2.50;1.08;;;19.80;54.30;;;;;;4496732;31;20501;-65
2022/05/11 03:19:47;;;;;;;2.28;1.10;;;19.70;54.30;;;;;;4496719;32;20492;-64
2022/05/11 03:22:13;;;;;;;2.50;1.17;;;19.70;54.30;;;;;;4482712;32;20517;-65
2022/05/11 03:24:39;;;;;;;2.35;1.10;;;19.70;54.20;;;;;;4496193;32;20267;-65
2022/05/11 03:27:05;;;;;;;2.33;1.13;;;19.70;54.30;;;;;;4482983;32;20128;-65
2022/05/11 03:29:31;;;;;;;2.67;1.05;;;19.70;54.20;;;;;;4495838;32;20271;-65
2022/05/11 03:34:41;;;;;;;3.65;0.90;;;19.70;54.20;;;;;;4495670;32;20144;-65
2022/05/11 03:37:14;;;;;;;1.88;1.08;;;19.70;54.20;;;;;;4496180;32;20133;-65
2022/05/11 03:39:40;;;;;;;3.10;1.15;;;19.70;54.30;;;;;;4495739;32;20698;-65
2022/05/11 03:42:07;;;;;;;2.80;1.15;;;19.70;54.30;;;;;;4496014;32;20144;-65
2022/05/11 03:44:34;;;;;;;2.40;1.40;;;19.70;54.30;;;;;;4496037;32;20218;-65
2022/05/11 03:47:00;;;;;;;2.08;0.95;;;19.70;54.20;;;;;;4508708;31;20133;-65
2022/05/11 03:49:27;;;;;;;2.03;1.10;;;19.70;54.30;;;;;;4496568;32;20147;-64
2022/05/11 03:51:53;;;;;;;2.72;1.38;;;19.70;54.30;;;;;;4482589;32;20218;-65
2022/05/11 03:54:20;;;;;;;3.45;1.40;;;19.70;54.30;;;;;;4482896;32;20136;-65
2022/05/11 03:56:46;;;;;;;1.95;1.10;;;19.70;54.30;;;;;;4496498;31;20136;-65
2022/05/11 03:59:12;;;;;;;2.75;1.20;;;19.70;54.30;;;;;;4495932;32;20209;-65
2022/05/11 04:01:38;;;;;;;4.25;1.20;;;19.70;54.30;;;;;;4495503;32;20321;-64
2022/05/11 04:04:05;;;;;;;2.25;1.30;;;19.70;54.30;;;;;;4495562;31;20659;-65
2022/05/11 04:06:31;;;;;;;2.38;1.20;;;19.70;54.30;;;;;;4496283;32;20120;-65
2022/05/11 04:08:58;;;;;;;1.88;1.02;;;19.70;54.20;;;;;;4495482;32;20176;-65
2022/05/11 04:11:25;;;;;;;2.75;1.30;;;19.70;54.30;;;;;;4495970;31;20136;-64
2022/05/11 04:13:51;;;;;;;1.42;0.90;;;19.70;54.30;;;;;;4482358;32;20144;-65
2022/05/11 04:16:18;;;;;;;2.25;1.02;;;19.70;54.30;;;;;;4495748;32;20117;-65
2022/05/11 04:18:45;;;;;;;3.00;1.42;;;19.70;54.30;;;;;;4497201;31;20601;-65
2022/05/11 04:21:12;;;;;;;3.58;1.00;;;19.70;54.30;;;;;;4498205;31;20278;-65
2022/05/11 04:23:40;;;;;;;1.48;0.90;;;19.60;54.20;;;;;;4486021;31;20179;-65
2022/05/11 04:26:10;;;;;;;1.55;0.95;;;19.60;54.20;;;;;;4485136;31;20698;-65
2022/05/11 04:28:38;;;;;;;3.28;1.20;;;19.60;54.20;;;;;;4498715;31;20128;-65
2022/05/11 04:31:07;;;;;;;2.08;1.20;;;19.60;54.20;;;;;;4484935;31;20597;-65
2022/05/11 04:39:52;;;;;;;3.38;1.02;;;19.60;54.20;;;;;;4484763;26;20170;-74
2022/05/11 04:42:18;;;;;;;0.95;0.80;;;19.60;54.20;;;;;;4477604;32;20081;-74
2022/05/11 04:44:43;;;;;;;2.55;1.00;;;19.60;54.20;;;;;;4478144;32;20172;-73
2022/05/11 04:47:12;;;;;;;1.42;0.82;;;19.60;54.20;;;;;;4478207;31;20080;-74
2022/05/11 04:49:38;;;;;;;1.40;0.93;;;19.60;54.20;;;;;;4477947;31;20096;-74
2022/05/11 04:52:07;;;;;;;1.90;0.80;;;19.60;54.20;;;;;;4478036;31;20111;-76
2022/05/11 04:54:51;;;;;;;2.03;1.10;;;19.60;54.20;;;;;;4478133;32;20084;-76
2022/05/11 04:57:18;;;;;;;1.98;1.00;;;19.60;54.20;;;;;;4478516;31;20071;-76
2022/05/11 04:59:44;;;;;;;1.55;0.85;;;19.60;54.20;;;;;;4478340;31;20081;-76
2022/05/11 05:02:25;;;;;;;1.63;0.90;;;19.60;54.20;;;;;;4476685;32;20077;-76
2022/05/11 05:04:51;;;;;;;2.38;1.15;;;19.60;54.20;;;;;;4477619;31;20074;-76
2022/05/11 05:07:18;;;;;;;2.67;1.10;;;19.60;54.30;;;;;;4477958;31;20524;-75
2022/05/11 05:09:44;;;;;;;1.50;1.02;;;19.60;54.30;;;;;;4477910;31;20422;-77
2022/05/11 05:12:12;;;;;;;1.45;0.98;;;19.60;54.30;;;;;;4477550;32;20501;-76
2022/05/11 05:14:38;;;;;;;1.63;0.80;;;19.60;54.30;;;;;;4477584;32;20089;-76
2022/05/11 05:17:07;;;;;;;1.83;0.98;;;19.60;54.30;;;;;;4477786;31;20174;-76
2022/05/11 05:19:33;;;;;;;1.60;1.02;;;19.60;54.30;;;;;;4478056;31;20085;-76
2022/05/11 05:22:02;;;;;;;2.30;0.88;;;19.60;54.30;;;;;;4477732;31;20116;-76
2022/05/11 05:24:29;;;;;;;2.08;1.10;;;19.60;54.30;;;;;;4477538;31;20141;-76
2022/05/11 05:26:55;;;;;;;1.38;0.95;;;19.60;54.30;;;;;;4476723;32;20162;-75
2022/05/11 05:32:06;;;;;;;1.83;1.10;;;19.60;54.30;;;;;;4477795;32;20250;-76
2022/05/11 05:34:32;;;;;;;1.35;0.70;;;19.60;54.30;;;;;;4477561;31;20093;-76
2022/05/11 05:36:58;;;;;;;1.75;0.70;;;19.60;54.30;;;;;;4477852;31;20084;-76
2022/05/11 05:39:24;;;;;;;2.97;1.00;;;19.60;54.30;;;;;;4476923;32;20622;-75
2022/05/11 05:41:50;;;;;;;1.38;0.75;;;19.50;54.30;;;;;;4477453;31;20093;-76
2022/05/11 05:44:16;;;;;;;1.85;0.88;;;19.50;54.30;;;;;;4477074;32;20537;-76
2022/05/11 05:46:41;;;;;;;2.35;1.00;;;19.50;54.30;;;;;;4477364;32;20180;-76
2022/05/11 05:49:07;;;;;;;1.65;1.00;;;19.50;54.30;;;;;;4477294;31;20509;-76
2022/05/11 05:51:37;;;;;;;2.55;1.02;;;19.50;54.30;;;;;;4477480;31;20199;-76
2022/05/11 05:54:03;;;;;;;1.98;0.70;;;19.50;54.30;;;;;;4476916;32;20211;-76
2022/05/11 05:56:29;;;;;;;1.17;0.70;;;19.50;54.30;;;;;;4477367;32;20097;-76
2022/05/11 05:59:01;;;;;;;1.45;0.80;;;19.50;54.30;;;;;;4477139;32;20066;-76
2022/05/11 06:01:27;;;;;;;1.80;0.98;;;19.50;54.20;;;;;;4476282;32;20079;-76
2022/05/11 06:03:53;;;;;;;1.40;0.90;;;19.50;54.30;;;;;;4476997;31;20533;-76
2022/05/11 06:06:20;;;;;;;1.33;0.80;;;19.50;54.30;;;;;;4476802;32;20085;-76
2022/05/11 06:08:46;;;;;;;1.58;1.00;;;19.50;54.30;;;;;;4477073;31;20139;-76
2022/05/11 06:11:12;;;;;;;1.30;0.90;;;19.50;54.30;;;;;;4476762;31;20069;-76
2022/05/11 06:13:39;;;;;;;1.00;0.80;;;19.50;54.30;;;;;;4476964;32;20092;-76
2022/05/11 06:16:10;;;;;;;1.20;0.70;;;19.50;54.30;;;;;;4476856;32;20230;-76
2022/05/11 06:18:36;;;;;;;1.83;0.70;;;19.50;54.30;;;;;;4476898;31;20077;-76
2022/05/11 06:21:03;;;;;;;1.52;0.80;;;19.50;54.30;;;;;;4476602;32;20096;-76
2022/05/11 06:23:29;;;;;;;1.15;0.75;;;19.50;54.30;;;;;;4476848;31;20257;-77
2022/05/11 06:25:54;;;;;;;2.42;1.10;;;19.50;54.30;;;;;;4476777;32;20477;-76
2022/05/11 06:28:21;;;;;;;1.40;0.80;;;19.50;54.30;;;;;;4475884;32;20084;-77
2022/05/11 06:30:47;;;;;;;1.40;0.85;;;19.50;54.30;;;;;;4476534;31;20088;-77
2022/05/11 06:33:13;;;;;;;1.23;0.80;;;19.50;54.30;;;;;;4476749;31;20081;-76
2022/05/11 06:35:39;;;;;;;1.88;0.75;;;19.50;54.30;;;;;;4475142;32;20557;-74
2022/05/11 06:38:08;;;;;;;3.30;0.80;;;19.50;54.40;;;;;;4476418;32;20084;-77
2022/05/11 06:40:34;;;;;;;3.25;1.00;;;19.50;54.40;;;;;;4475825;31;20092;-75
2022/05/11 06:43:01;;;;;;;3.65;1.48;;;19.50;54.60;;;;;;4476359;31;20611;-74
2022/05/11 06:45:28;;;;;;;3.78;1.42;;;19.50;54.80;;;;;;4476504;31;20452;-75
2022/05/11 06:47:54;;;;;;;3.10;1.20;;;19.50;54.80;;;;;;4476351;31;20111;-75
2022/05/11 06:50:21;;;;;;;6.05;1.70;;;19.50;54.90;;;;;;4476256;31;20128;-75
2022/05/11 06:52:47;;;;;;;4.68;1.50;;;19.50;56.00;;;;;;4476286;32;20069;-77
2022/05/11 07:00:42;;;;;;;5.07;2.05;;;19.50;55.60;;;;;;4476467;32;20081;-76
2022/05/11 07:03:08;;;;;;;3.47;1.90;;;19.50;55.80;;;;;;4476224;32;20419;-75
2022/05/11 07:05:35;;;;;;;4.78;1.95;;;19.50;55.90;;;;;;4476084;32;20584;-75
2022/05/11 07:08:02;;;;;;;7.57;2.45;;;19.50;56.00;;;;;;4476021;32;20081;-75
2022/05/11 07:10:27;;;;;;;6.07;1.95;;;19.50;56.10;;;;;;4476269;32;20078;-75
2022/05/11 07:12:56;;;;;;;8.25;2.35;;;19.60;57.20;;;;;;4475051;32;20092;-75
2022/05/11 07:15:22;;;;;;;7.90;2.25;;;19.60;56.20;;;;;;4476198;32;20073;-75
2022/05/11 07:17:53;;;;;;;5.10;1.90;;;19.60;56.40;;;;;;4476049;32;20080;-75
2022/05/11 07:20:26;;;;;;;5.93;2.25;;;19.60;56.50;;;;;;4476382;32;20093;-75
2022/05/11 07:22:56;;;;;;;5.38;1.95;;;19.60;56.60;;;;;;4476334;32;20203;-75
2022/05/11 07:25:24;;;;;;;6.25;2.10;;;19.60;56.60;;;;;;4476128;32;20204;-74
2022/05/11 07:27:51;;;;;;;7.75;2.20;;;19.60;56.70;;;;;;4475176;32;20098;-74
2022/05/11 07:30:22;;;;;;;6.35;2.13;;;19.60;56.60;;;;;;4476158;32;20195;-75
2022/05/11 07:32:48;;;;;;;5.95;2.00;;;19.60;56.70;;;;;;4476056;32;20100;-75
2022/05/11 07:35:15;;;;;;;11.02;2.20;;;19.60;56.70;;;;;;4475863;32;20077;-75
2022/05/11 07:37:41;;;;;;;6.35;1.98;;;19.60;56.70;;;;;;4475787;32;20097;-81
2022/05/11 07:40:09;;;;;;;9.80;2.67;;;19.60;56.80;;;;;;4476202;32;20077;-74
2022/05/11 07:42:35;;;;;;;5.00;1.75;;;19.60;56.90;;;;;;4476159;32;20085;-75
2022/05/11 07:45:01;;;;;;;7.18;2.05;;;19.60;57.00;;;;;;4475000;32;20070;-75
2022/05/11 07:47:27;;;;;;;6.82;1.88;;;19.60;57.00;;;;;;4476294;32;20390;-75
2022/05/11 07:49:53;;;;;;;6.80;2.10;;;19.60;57.00;;;;;;4474566;32;20093;-74
2022/05/11 07:52:19;;;;;;;6.72;2.13;;;19.70;57.10;;;;;;4477117;32;20683;-75
2022/05/11 07:54:45;;;;;;;6.22;1.92;;;19.60;57.10;;;;;;4478969;32;20076;-76
2022/05/11 07:59:56;;;;;;;5.97;2.20;;;19.70;57.00;;;;;;4479276;32;20074;-75
2022/05/11 08:02:30;;;;;;;8.93;2.35;;;19.70;57.00;;;;;;4479425;31;20223;-75
2022/05/11 08:04:59;;;;;;;8.30;2.00;;;19.70;57.00;;;;;;4479042;31;20473;-75
2022/05/11 08:07:28;;;;;;;6.43;1.95;;;19.70;57.00;;;;;;4478848;31;20077;-75
2022/05/11 08:09:58;;;;;;;9.90;2.03;;;19.70;57.00;;;;;;4478204;31;20081;-76
2022/05/11 08:12:24;;;;;;;6.25;2.05;;;19.70;56.90;;;;;;4478892;31;20077;-75
2022/05/11 08:14:49;;;;;;;8.23;2.20;;;19.70;56.90;;;;;;4478338;32;20175;-76
2022/05/11 08:17:26;;;;;;;8.20;2.35;;;19.70;56.90;;;;;;4478701;32;20218;-75
2022/05/11 08:19:52;;;;;;;5.72;2.20;;;19.70;56.90;;;;;;4478728;32;20500;-74
2022/05/11 08:22:18;;;;;;;6.43;2.08;;;19.70;57.00;;;;;;4478669;31;20061;-74
2022/05/11 08:24:45;;;;;;;6.60;2.00;;;19.70;57.10;;;;;;4478584;32;20065;-75
2022/05/11 08:27:11;;;;;;;9.90;2.10;;;19.70;57.10;;;;;;4478527;32;20179;-75
2022/05/11 08:35:07;;;;;;;9.35;2.40;;;19.80;57.10;;;;;;4478230;32;20124;-75
2022/05/11 08:37:33;;;;;;;6.55;2.00;;;19.80;57.00;;;;;;4478221;31;20283;-78
2022/05/11 08:39:59;;;;;;;6.38;2.28;;;19.80;57.00;;;;;;4478035;32;20504;-75
2022/05/11 08:42:28;;;;;;;9.32;2.13;;;19.80;57.00;;;;;;4476911;32;20494;-76
2022/05/11 08:44:55;;;;;;;8.32;2.28;;;19.80;57.00;;;;;;4478132;32;20514;-73
2022/05/11 08:47:41;;;;;;;8.65;2.47;;;19.80;57.00;;;;;;4478145;31;20595;-73
2022/05/11 08:50:18;;;;;;;10.02;2.55;;;19.90;57.00;;;;;;4477911;31;20576;-74
2022/05/11 08:53:03;;;;;;;9.10;2.13;;;19.90;57.00;;;;;;4478024;32;20089;-74
2022/05/11 08:55:38;;;;;;;6.55;1.95;;;19.90;57.00;;;;;;4478282;31;20401;-74
2022/05/11 08:58:33;;;;;;;6.35;2.20;;;19.90;57.00;;;;;;4477679;31;20092;-77
2022/05/11 09:01:01;;;;;;;7.75;2.22;;;19.90;56.90;;;;;;4477970;31;20166;-75
2022/05/11 09:03:31;;;;;;;9.13;2.42;;;19.90;56.90;;;;;;4477272;32;20205;-75
2022/05/11 09:06:24;;;;;;;6.63;1.73;;;20.00;56.90;;;;;;4477829;32;20089;-74
2022/05/11 09:08:50;;;;;;;6.60;1.92;;;20.00;56.80;;;;;;4477605;32;20125;-75
2022/05/11 09:11:25;;;;;;;7.97;2.40;;;20.00;56.70;;;;;;4477745;31;20159;-73
2022/05/11 09:13:51;;;;;;;6.82;2.08;;;20.00;56.70;;;;;;4477945;31;20073;-74
2022/05/11 09:16:24;;;;;;;7.05;2.20;;;20.10;56.80;;;;;;4477489;31;20081;-80
2022/05/11 09:18:50;;;;;;;8.20;2.33;;;20.10;56.80;;;;;;4477824;31;20242;-74
2022/05/11 09:21:29;;;;;;;8.20;2.15;;;20.10;56.70;;;;;;4477665;32;20215;-74
2022/05/11 09:24:22;;;;;;;7.72;2.10;;;20.10;56.70;;;;;;4477681;31;20182;-73
2022/05/11 09:27:06;;;;;;;13.23;2.25;;;20.20;56.60;;;;;;4477739;31;20105;-75
2022/05/11 09:29:39;;;;;;;5.60;1.92;;;20.20;56.60;;;;;;4477951;31;20082;-75
2022/05/11 09:32:38;;;;;;;7.43;1.80;;;20.20;56.50;;;;;;4477798;31;20104;-75
2022/05/11 09:35:23;;;;;;;10.27;2.30;;;20.20;56.40;;;;;;4467686;31;20211;-80
2022/05/11 09:38:10;;;;;;;12.02;2.58;;;20.20;56.10;;;;;;4477603;31;20665;-76
2022/05/11 09:40:56;;;;;;;8.43;2.38;;;20.20;55.90;;;;;;4477673;31;20085;-77
2022/05/11 09:43:38;;;;;;;9.70;1.98;;;20.20;55.80;;;;;;4476507;32;20093;-74
2022/05/11 09:46:17;;;;;;;7.65;1.65;;;20.20;55.80;;;;;;4477617;31;20364;-75
2022/05/11 09:49:13;;;;;;;7.10;1.85;;;20.30;55.90;;;;;;4477595;31;20088;-75
2022/05/11 09:51:43;;;;;;;11.18;1.80;;;20.30;55.90;;;;;;4477334;32;20109;-76
2022/05/11 09:54:21;;;;;;;8.15;1.88;;;20.30;55.80;;;;;;4477129;31;20077;-75
2022/05/11 09:56:52;;;;;;;8.98;2.05;;;20.40;55.70;;;;;;4476971;31;20077;-70
2022/05/11 09:59:32;;;;;;;7.38;1.98;;;20.40;55.60;;;;;;4477149;32;20091;-74
2022/05/11 10:02:26;;;;;;;10.30;1.60;;;20.40;55.60;;;;;;4477389;31;20190;-73
2022/05/11 10:05:20;;;;;;;5.22;1.65;;;20.40;55.50;;;;;;4477386;32;20417;-74
2022/05/11 10:07:52;;;;;;;7.93;1.83;;;20.40;55.40;;;;;;4469777;31;20537;-71
2022/05/11 10:10:29;;;;;;;7.28;1.45;;;20.40;55.30;;;;;;4476889;31;20073;-72
2022/05/11 10:13:01;;;;;;;9.25;2.28;;;20.40;55.30;;;;;;4476987;31;20093;-70
2022/05/11 10:21:50;;;;;;;8.98;2.08;;;20.40;54.70;;;;;;4477073;32;20089;-71
2022/05/11 10:24:19;;;;;;;9.70;2.10;;;20.40;54.60;;;;;;4476824;31;20159;-71
2022/05/11 10:27:02;;;;;;;9.90;2.33;;;20.40;54.60;;;;;;4476776;31;20140;-71
2022/05/11 10:29:37;;;;;;;10.25;1.98;;;20.40;54.60;;;;;;4476782;31;20210;-71
2022/05/11 10:32:18;;;;;;;7.82;1.50;;;20.40;54.60;;;;;;4477101;32;20101;-70
2022/05/11 10:35:01;;;;;;;11.38;2.22;;;20.40;54.50;;;;;;4476764;31;20415;-70
2022/05/11 10:37:33;;;;;;;10.60;1.88;;;20.40;55.60;;;;;;4476797;32;20649;-71
2022/05/11 10:40:09;;;;;;;8.15;1.83;;;20.40;54.70;;;;;;4476578;31;20492;-71
2022/05/11 10:42:39;;;;;;;7.15;1.90;;;20.50;54.70;;;;;;4476919;32;20418;-70
2022/05/11 10:45:18;;;;;;;8.73;2.20;;;20.50;54.80;;;;;;4476910;32;20587;-69
2022/05/11 10:48:16;;;;;;;10.38;2.15;;;20.50;54.70;;;;;;4476926;31;20076;-70
2022/05/11 10:51:15;;;;;;;9.50;2.08;;;20.50;54.70;;;;;;4476527;32;20088;-70
2022/05/11 10:53:46;;;;;;;11.43;2.28;;;20.50;54.70;;;;;;4476474;32;20426;-71
2022/05/11 10:56:50;;;;;;;8.75;2.28;;;20.60;55.60;;;;;;4476615;32;20216;-71
2022/05/11 10:59:29;;;;;;;5.63;1.85;;;20.60;54.70;;;;;;4476284;32;20086;-71
2022/05/11 11:02:27;;;;;;;7.18;1.95;;;20.60;54.60;;;;;;4476449;32;20230;-70
2022/05/11 11:05:04;;;;;;;10.43;2.20;;;20.60;54.60;;;;;;4476570;32;20187;-70
2022/05/11 11:07:54;;;;;;;6.85;1.73;;;20.70;54.50;;;;;;4476332;32;20254;-72
2022/05/11 11:10:26;;;;;;;6.32;1.67;;;20.70;54.50;;;;;;4476588;32;20123;-70
2022/05/11 11:13:16;;;;;;;7.95;1.60;;;20.70;54.40;;;;;;4476275;32;20596;-71
2022/05/11 11:15:44;;;;;;;12.05;1.85;;;20.70;54.30;;;;;;4476340;32;20113;-71
2022/05/11 11:18:16;;;;;;;7.28;2.00;;;20.70;54.30;;;;;;4476259;32;20178;-70
2022/05/11 11:20:47;;;;;;;10.02;2.05;;;20.70;54.30;;;;;;4476324;32;20097;-70
2022/05/11 11:23:16;;;;;;;8.55;1.88;;;20.70;54.20;;;;;;4476196;32;20182;-71
2022/05/11 11:25:44;;;;;;;6.75;1.73;;;20.70;54.00;;;;;;4476183;32;20089;-70
2022/05/11 11:28:15;;;;;;;5.78;1.50;;;20.70;54.00;;;;;;4478398;32;20105;-71
2022/05/11 11:31:00;;;;;;;8.50;1.90;;;20.70;54.00;;;;;;4479466;31;20414;-72
2022/05/11 11:33:26;;;;;;;8.68;1.92;;;20.70;53.80;;;;;;4479180;31;20199;-72
2022/05/11 11:35:59;;;;;;;8.80;1.88;;;20.70;53.50;;;;;;4479166;31;20166;-72
2022/05/11 11:38:25;;;;;;;10.38;1.73;;;20.70;52.90;;;;;;4479256;31;20167;-73
2022/05/11 11:41:15;;;;;;;9.52;1.80;;;20.70;52.70;;;;;;4479692;31;20219;-71
2022/05/11 11:43:54;;;;;;;11.23;2.17;;;20.70;52.50;;;;;;4479012;31;20097;-72
2022/05/11 11:46:38;;;;;;;7.68;1.60;;;20.60;52.50;;;;;;4479454;31;20135;-72
2022/05/11 11:49:04;;;;;;;6.13;1.48;;;20.70;52.70;;;;;;4479281;31;20194;-74
2022/05/11 11:51:53;;;;;;;8.45;1.58;;;20.60;52.70;;;;;;4479161;31;20636;-71
2022/05/11 11:54:25;;;;;;;7.47;1.85;;;20.60;52.70;;;;;;4479378;32;20111;-72
2022/05/11 11:56:53;;;;;;;6.50;1.38;;;20.60;52.70;;;;;;4478659;31;20133;-72
2022/05/11 11:59:24;;;;;;;6.40;1.33;;;20.60;52.70;;;;;;4479002;31;20089;-72
2022/05/11 12:02:06;;;;;;;7.15;1.30;;;20.60;52.70;;;;;;4478853;31;20112;-72
2022/05/11 12:04:40;;;;;;;5.15;1.40;;;20.60;52.70;;;;;;4478882;31;20105;-72
2022/05/11 12:15:41;;;;;;;6.80;1.48;;;20.60;52.00;;;;;;4478706;32;20199;-72
2022/05/11 12:18:31;;;;;;;9.45;1.80;;;20.60;52.00;;;;;;4478661;32;20099;-72
2022/05/11 12:20:57;;;;;;;6.63;1.40;;;20.60;52.10;;;;;;4479041;32;20530;-72
2022/05/11 12:23:33;;;;;;;7.38;2.03;;;20.60;52.20;;;;;;4478811;31;20491;-72
2022/05/11 12:26:02;;;;;;;7.72;1.45;;;20.60;52.20;;;;;;4478866;31;20139;-72
2022/05/11 12:28:28;;;;;;;5.82;1.45;;;20.60;52.20;;;;;;4478219;31;20087;-72
2022/05/11 12:30:54;;;;;;;8.10;1.75;;;20.60;53.20;;;;;;4478596;32;20078;-72
2022/05/11 12:33:27;;;;;;;6.88;1.48;;;20.60;52.40;;;;;;4478302;31;20090;-71
2022/05/11 12:35:53;;;;;;;9.48;1.63;;;20.60;52.40;;;;;;4478533;31;20073;-71
2022/05/11 12:38:34;;;;;;;7.60;1.63;;;20.60;52.40;;;;;;4477620;31;20072;-71
2022/05/11 12:41:18;;;;;;;8.25;2.00;;;20.60;52.50;;;;;;4478481;32;20127;-73
2022/05/11 12:44:12;;;;;;;;;;;20.60;52.60;;;;;;4479309;31;20089;-72
2022/05/11 12:46:42;;;;;;;11.35;2.00;;;20.60;52.50;;;;;;4476903;32;20008;-72
2022/05/11 12:49:14;;;;;;;8.57;1.88;;;20.60;52.60;;;;;;4478110;31;20073;-72
2022/05/11 12:51:51;;;;;;;6.35;1.35;;;20.60;52.60;;;;;;4478272;32;20070;-72
2022/05/11 12:54:26;;;;;;;6.47;1.30;;;20.60;52.60;;;;;;4478458;32;20089;-75
2022/05/11 12:56:59;;;;;;;10.38;1.80;;;20.60;52.70;;;;;;4478068;31;20537;-72
2022/05/11 12:59:28;;;;;;;;;;;20.60;52.70;;;;;;4479010;31;20214;-73
2022/05/11 13:02:16;;;;;;;8.80;1.58;;;20.60;52.70;;;;;;4477981;32;19977;-72
2022/05/11 13:04:57;;;;;;;8.48;1.67;;;20.60;52.80;;;;;;4478081;31;20101;-72
2022/05/11 13:07:33;;;;;;;8.20;1.60;;;20.60;52.80;;;;;;4477990;31;20091;-72
2022/05/11 13:10:02;;;;;;;7.72;1.65;;;20.60;52.90;;;;;;4478010;31;20075;-72
2022/05/11 13:12:31;;;;;;;6.57;1.63;;;20.60;52.90;;;;;;4477884;31;20085;-72
2022/05/11 13:15:00;;;;;;;8.63;1.70;;;20.60;52.80;;;;;;4477925;32;20070;-72
2022/05/11 13:17:28;;;;;;;6.03;1.42;;;20.60;52.90;;;;;;4477736;31;20158;-73
2022/05/11 13:20:05;;;;;;;6.40;1.67;;;20.50;52.80;;;;;;4477967;31;20091;-72
2022/05/11 13:22:32;;;;;;;5.80;1.67;;;20.60;52.90;;;;;;4477918;31;20396;-72
2022/05/11 13:25:05;;;;;;;5.93;1.50;;;20.60;52.90;;;;;;4477728;31;20143;-72
2022/05/11 13:27:43;;;;;;;13.63;2.20;;;20.60;52.90;;;;;;4477686;31;20109;-72
2022/05/11 13:30:11;;;;;;;11.05;2.10;;;20.60;52.90;;;;;;4477626;32;20085;-72
2022/05/11 13:32:45;;;;;;;6.60;1.60;;;20.60;52.90;;;;;;4477281;31;20163;-71
2022/05/11 13:35:30;;;;;;;7.57;1.95;;;20.60;52.90;;;;;;4477652;31;20140;-72
2022/05/11 13:38:05;;;;;;;18.23;2.00;;;20.60;52.70;;;;;;4477574;31;20085;-72
2022/05/11 13:40:35;;;;;;;7.60;1.70;;;20.60;52.70;;;;;;4477253;32;20140;-73
2022/05/11 13:43:14;;;;;;;8.60;1.90;;;20.60;52.70;;;;;;4477549;31;20121;-73
2022/05/11 13:46:03;;;;;;;7.88;1.75;;;20.60;52.70;;;;;;4477432;32;20148;-73
2022/05/11 13:48:38;;;;;;;7.13;1.50;;;20.60;52.40;;;;;;4477890;31;20162;-73
2022/05/11 13:51:26;;;;;;;6.65;2.08;;;20.60;52.50;;;;;;4477892;32;20069;-71